EST,Max TemperatureF,Mean TemperatureF,Min TemperatureF,Max Dew PointF,MeanDew PointF,Min DewpointF,Max Humidity, Mean Humidity, Min Humidity, Max Sea Level PressureIn, Mean Sea Level PressureIn, Min Sea Level PressureIn, Max VisibilityMiles, Mean VisibilityMiles, Min VisibilityMiles, Max Wind SpeedMPH, Mean Wind SpeedMPH, Max Gust SpeedMPH,PrecipitationIn, CloudCover, Events, WindDirDegrees
2012-12-1,51,37,23,36,28,19,100,78,50,30.38,30.33,30.29,10,10,7,8,1,,0.00,0,,157
2012-12-2,59,44,28,43,35,27,100,76,44,30.33,30.27,30.19,10,8,3,13,3,16,0.00,3,Rain,241
2012-12-3,60,48,37,46,43,37,100,81,55,30.30,30.27,30.24,10,9,0,8,2,,0.00,5,Fog,239
2012-12-4,60,46,32,45,39,32,100,76,48,30.29,30.22,30.13,10,6,0,10,3,,0.00,6,Fog,222
2012-12-5,55,42,28,45,30,18,87,64,32,30.26,30.21,30.12,10,10,10,10,4,,0.00,3,Rain,303
2012-12-6,44,32,21,32,25,19,100,76,49,30.26,30.20,30.14,10,10,7,7,2,,0.00,4,Rain,44
2012-12-7,53,42,32,41,34,30,93,79,58,30.14,30.05,29.97,10,10,10,5,1,,0.00,4,,353
2012-12-8,59,48,37,45,41,36,93,78,51,30.04,29.97,29.93,10,9,5,10,2,,0.00,6,Rain,241
2012-12-9,57,50,42,50,45,43,100,88,63,30.11,30.03,29.93,10,5,0,8,1,,0.10,7,Fog-Rain,76
2012-12-10,50,42,33,46,42,32,100,92,81,29.93,29.76,29.66,10,6,0,9,2,,0.26,7,Fog-Rain,235
2012-12-11,33,28,23,32,24,19,100,79,64,30.18,30.01,29.80,10,10,10,10,4,,0.00,7,Rain,280
2012-12-12,33,28,23,27,23,19,93,82,74,30.33,30.28,30.18,10,10,2,6,1,,0.00,2,,26
2012-12-13,41,29,17,23,18,14,100,75,36,30.39,30.34,30.29,10,10,7,5,1,,0.00,0,,357
2012-12-14,46,30,15,27,19,12,93,70,37,30.35,30.28,30.23,10,10,10,7,1,,0.00,0,,215
2012-12-15,51,38,26,32,22,14,87,62,24,30.23,30.13,30.01,10,10,7,8,3,,0.00,3,Rain,50
2012-12-16,41,37,33,39,36,32,100,90,81,30.03,29.92,29.82,10,6,2,8,3,,0.03,8,Rain,26
2012-12-17,42,37,32,43,37,30,100,95,87,29.84,29.74,29.61,10,5,0,7,2,,0.36,7,Fog-Rain-Thunderstorm,12
2012-12-18,41,34,26,37,32,27,100,87,81,29.89,29.75,29.61,10,10,5,12,5,24,0.07,6,Rain,271
2012-12-19,48,37,26,30,28,23,100,75,43,30.12,30.00,29.85,10,10,5,10,3,17,0.00,2,,268
2012-12-20,37,32,28,36,30,27,100,87,75,30.11,29.86,29.46,10,8,3,18,5,26,0.45,5,Rain,95
2012-12-21,35,28,21,32,20,16,93,80,64,29.77,29.58,29.47,10,4,1,21,15,37,0.01,8,Rain-Snow,276
2012-12-22,26,24,21,19,16,14,86,72,59,30.08,29.98,29.76,10,7,2,20,14,32,0.00,5,Snow,283
2012-12-23,42,28,15,21,17,10,86,62,36,30.05,30.00,29.93,10,10,10,16,5,23,0.00,0,,229
2012-12-24,33,27,21,32,28,19,100,93,69,29.98,29.89,29.81,10,6,1,12,3,,0.21,7,Rain,22
2012-12-25,41,36,32,34,31,28,100,81,65,30.08,30.02,29.90,10,9,1,9,2,,0.01,4,,59
2012-12-26,35,32,30,32,29,28,100,92,87,30.04,29.69,29.49,10,6,1,15,8,24,0.36,8,Rain-Snow,87
2012-12-27,32,28,23,28,20,18,93,83,74,30.06,29.89,29.61,10,7,1,21,11,31,0.00,8,Snow,292
2012-12-28,30,26,21,25,21,19,93,80,69,30.09,30.01,29.89,10,10,7,7,1,,0.00,6,,351
2012-12-29,32,28,24,30,25,19,100,85,74,29.94,29.76,29.65,10,6,1,18,6,30,0.03,8,Snow,298
2012-12-30,24,20,17,21,15,12,86,76,63,30.34,30.22,29.94,10,7,1,15,9,26,0.00,4,Snow,276
2012-12-31,32,21,10,18,14,9,93,69,41,30.30,30.19,30.05,10,10,7,13,3,,0.00,3,,223